sensor_id;sensor_type;location;lat;lon;timestamp;P1;durP1;ratioP1;P2;durP2;ratioP2
30398;SDS011;17195;50.838;7.214;2023-12-14T00:01:14;13.07;;;7.28;;
30398;SDS011;17195;50.838;7.214;2023-12-14T00:03:40;17.70;;;8.60;;
30398;SDS011;17195;50.838;7.214;2023-12-14T00:06:09;15.43;;;8.48;;
30398;SDS011;17195;50.838;7.214;2023-12-14T00:08:36;16.13;;;9.85;;
30398;SDS011;17195;50.838;7.214;2023-12-14T00:11:05;24.65;;;14.60;;
30398;SDS011;17195;50.838;7.214;2023-12-14T00:13:30;26.83;;;16.17;;
30398;SDS011;17195;50.838;7.214;2023-12-14T00:15:56;23.40;;;12.98;;
30398;SDS011;17195;50.838;7.214;2023-12-14T00:18:22;16.02;;;10.13;;
30398;SDS011;17195;50.838;7.214;2023-12-14T00:20:47;19.77;;;10.57;;
30398;SDS011;17195;50.838;7.214;2023-12-14T00:23:13;18.52;;;11.02;;
30398;SDS011;17195;50.838;7.214;2023-12-14T00:25:39;15.05;;;9.93;;
30398;SDS011;17195;50.838;7.214;2023-12-14T00:28:04;16.70;;;9.93;;
30398;SDS011;17195;50.838;7.214;2023-12-14T00:30:30;14.95;;;8.70;;
30398;SDS011;17195;50.838;7.214;2023-12-14T00:32:55;11.80;;;7.72;;
30398;SDS011;17195;50.838;7.214;2023-12-14T00:35:21;12.90;;;7.22;;
30398;SDS011;17195;50.838;7.214;2023-12-14T00:37:46;12.35;;;7.32;;
30398;SDS011;17195;50.838;7.214;2023-12-14T00:40:12;15.40;;;8.05;;
30398;SDS011;17195;50.838;7.214;2023-12-14T00:42:37;13.07;;;7.50;;
30398;SDS011;17195;50.838;7.214;2023-12-14T00:45:03;12.02;;;6.82;;
30398;SDS011;17195;50.838;7.214;2023-12-14T00:47:29;15.23;;;7.95;;
30398;SDS011;17195;50.838;7.214;2023-12-14T00:49:55;11.32;;;7.13;;
30398;SDS011;17195;50.838;7.214;2023-12-14T00:52:20;10.23;;;7.15;;
30398;SDS011;17195;50.838;7.214;2023-12-14T00:54:46;12.15;;;7.60;;
30398;SDS011;17195;50.838;7.214;2023-12-14T00:57:11;10.93;;;6.47;;
30398;SDS011;17195;50.838;7.214;2023-12-14T00:59:37;12.63;;;7.90;;
30398;SDS011;17195;50.838;7.214;2023-12-14T01:02:02;12.27;;;7.32;;
30398;SDS011;17195;50.838;7.214;2023-12-14T01:04:28;9.18;;;7.20;;
30398;SDS011;17195;50.838;7.214;2023-12-14T01:06:53;12.30;;;7.50;;
30398;SDS011;17195;50.838;7.214;2023-12-14T01:09:19;9.82;;;6.60;;
30398;SDS011;17195;50.838;7.214;2023-12-14T01:11:45;11.38;;;6.30;;
30398;SDS011;17195;50.838;7.214;2023-12-14T01:14:10;7.88;;;5.90;;
30398;SDS011;17195;50.838;7.214;2023-12-14T01:16:36;18.85;;;9.45;;
30398;SDS011;17195;50.838;7.214;2023-12-14T01:19:01;14.90;;;8.40;;
30398;SDS011;17195;50.838;7.214;2023-12-14T01:21:27;10.73;;;6.35;;
30398;SDS011;17195;50.838;7.214;2023-12-14T01:23:53;12.20;;;6.15;;
30398;SDS011;17195;50.838;7.214;2023-12-14T01:26:18;10.48;;;7.15;;
30398;SDS011;17195;50.838;7.214;2023-12-14T01:28:44;11.50;;;7.00;;
30398;SDS011;17195;50.838;7.214;2023-12-14T01:31:09;13.25;;;7.20;;
30398;SDS011;17195;50.838;7.214;2023-12-14T01:33:35;10.35;;;6.38;;
30398;SDS011;17195;50.838;7.214;2023-12-14T01:36:00;14.85;;;6.80;;
30398;SDS011;17195;50.838;7.214;2023-12-14T01:38:26;11.48;;;6.57;;
30398;SDS011;17195;50.838;7.214;2023-12-14T01:40:51;12.00;;;6.75;;
30398;SDS011;17195;50.838;7.214;2023-12-14T01:43:17;9.07;;;6.35;;
30398;SDS011;17195;50.838;7.214;2023-12-14T01:45:43;10.27;;;6.63;;
30398;SDS011;17195;50.838;7.214;2023-12-14T01:48:08;9.55;;;6.30;;
30398;SDS011;17195;50.838;7.214;2023-12-14T01:50:34;12.80;;;6.15;;
30398;SDS011;17195;50.838;7.214;2023-12-14T01:52:59;13.48;;;6.53;;
30398;SDS011;17195;50.838;7.214;2023-12-14T01:55:25;9.93;;;6.65;;
30398;SDS011;17195;50.838;7.214;2023-12-14T01:57:51;10.80;;;6.03;;
30398;SDS011;17195;50.838;7.214;2023-12-14T02:00:39;10.52;;;7.28;;
30398;SDS011;17195;50.838;7.214;2023-12-14T02:03:10;12.35;;;6.00;;
30398;SDS011;17195;50.838;7.214;2023-12-14T02:05:36;12.38;;;6.45;;
30398;SDS011;17195;50.838;7.214;2023-12-14T02:08:01;10.10;;;6.47;;
30398;SDS011;17195;50.838;7.214;2023-12-14T02:10:27;11.00;;;6.85;;
30398;SDS011;17195;50.838;7.214;2023-12-14T02:12:52;12.73;;;6.97;;
30398;SDS011;17195;50.838;7.214;2023-12-14T02:15:18;12.88;;;6.72;;
30398;SDS011;17195;50.838;7.214;2023-12-14T02:17:44;11.50;;;6.50;;
30398;SDS011;17195;50.838;7.214;2023-12-14T02:20:09;11.95;;;6.78;;
30398;SDS011;17195;50.838;7.214;2023-12-14T02:22:40;14.35;;;7.10;;
30398;SDS011;17195;50.838;7.214;2023-12-14T02:25:15;12.18;;;6.90;;
30398;SDS011;17195;50.838;7.214;2023-12-14T02:27:40;9.75;;;6.55;;
30398;SDS011;17195;50.838;7.214;2023-12-14T02:30:06;10.18;;;7.35;;
30398;SDS011;17195;50.838;7.214;2023-12-14T02:32:32;8.32;;;6.00;;
30398;SDS011;17195;50.838;7.214;2023-12-14T02:34:58;12.65;;;6.95;;
30398;SDS011;17195;50.838;7.214;2023-12-14T02:37:23;11.90;;;7.35;;
30398;SDS011;17195;50.838;7.214;2023-12-14T02:39:49;13.18;;;7.68;;
30398;SDS011;17195;50.838;7.214;2023-12-14T02:42:14;15.07;;;7.65;;
30398;SDS011;17195;50.838;7.214;2023-12-14T02:44:40;10.43;;;6.75;;
30398;SDS011;17195;50.838;7.214;2023-12-14T02:47:05;9.55;;;6.82;;
30398;SDS011;17195;50.838;7.214;2023-12-14T02:49:31;13.68;;;7.00;;
30398;SDS011;17195;50.838;7.214;2023-12-14T02:51:57;11.23;;;7.10;;
30398;SDS011;17195;50.838;7.214;2023-12-14T02:54:23;9.68;;;7.05;;
30398;SDS011;17195;50.838;7.214;2023-12-14T02:56:48;9.75;;;6.60;;
30398;SDS011;17195;50.838;7.214;2023-12-14T02:59:14;11.70;;;6.70;;
30398;SDS011;17195;50.838;7.214;2023-12-14T03:01:39;11.18;;;6.65;;
30398;SDS011;17195;50.838;7.214;2023-12-14T03:04:06;11.73;;;7.03;;
30398;SDS011;17195;50.838;7.214;2023-12-14T03:06:32;11.50;;;6.88;;
30398;SDS011;17195;50.838;7.214;2023-12-14T03:08:57;12.55;;;7.13;;
30398;SDS011;17195;50.838;7.214;2023-12-14T03:11:23;10.95;;;7.07;;
30398;SDS011;17195;50.838;7.214;2023-12-14T03:13:49;17.10;;;7.55;;
30398;SDS011;17195;50.838;7.214;2023-12-14T03:16:15;9.55;;;7.03;;
30398;SDS011;17195;50.838;7.214;2023-12-14T03:18:42;15.85;;;9.63;;
30398;SDS011;17195;50.838;7.214;2023-12-14T03:21:07;11.27;;;7.95;;
30398;SDS011;17195;50.838;7.214;2023-12-14T03:23:34;16.95;;;9.90;;
30398;SDS011;17195;50.838;7.214;2023-12-14T03:25:59;15.15;;;8.82;;
30398;SDS011;17195;50.838;7.214;2023-12-14T03:28:26;15.35;;;9.13;;
30398;SDS011;17195;50.838;7.214;2023-12-14T03:30:51;20.45;;;10.45;;
30398;SDS011;17195;50.838;7.214;2023-12-14T03:33:17;21.13;;;11.30;;
30398;SDS011;17195;50.838;7.214;2023-12-14T03:35:43;17.25;;;10.98;;
30398;SDS011;17195;50.838;7.214;2023-12-14T03:38:09;16.27;;;8.95;;
30398;SDS011;17195;50.838;7.214;2023-12-14T03:40:35;12.23;;;7.97;;
30398;SDS011;17195;50.838;7.214;2023-12-14T03:43:01;12.18;;;8.38;;
30398;SDS011;17195;50.838;7.214;2023-12-14T03:45:28;15.40;;;8.65;;
30398;SDS011;17195;50.838;7.214;2023-12-14T03:47:54;14.43;;;8.57;;
30398;SDS011;17195;50.838;7.214;2023-12-14T03:50:19;17.23;;;8.80;;
30398;SDS011;17195;50.838;7.214;2023-12-14T03:52:45;14.35;;;8.63;;
30398;SDS011;17195;50.838;7.214;2023-12-14T03:55:11;13.82;;;8.45;;
30398;SDS011;17195;50.838;7.214;2023-12-14T03:57:37;13.88;;;8.80;;
30398;SDS011;17195;50.838;7.214;2023-12-14T04:00:02;18.33;;;10.73;;
30398;SDS011;17195;50.838;7.214;2023-12-14T04:02:28;15.95;;;11.23;;
30398;SDS011;17195;50.838;7.214;2023-12-14T04:04:54;22.00;;;11.85;;
30398;SDS011;17195;50.838;7.214;2023-12-14T04:07:19;23.17;;;13.52;;
30398;SDS011;17195;50.838;7.214;2023-12-14T04:09:45;28.13;;;15.35;;
30398;SDS011;17195;50.838;7.214;2023-12-14T04:12:11;30.92;;;15.48;;
30398;SDS011;17195;50.838;7.214;2023-12-14T04:14:36;28.77;;;15.10;;
30398;SDS011;17195;50.838;7.214;2023-12-14T04:17:02;28.98;;;15.63;;
30398;SDS011;17195;50.838;7.214;2023-12-14T04:19:27;28.13;;;16.00;;
30398;SDS011;17195;50.838;7.214;2023-12-14T04:21:53;28.48;;;15.55;;
30398;SDS011;17195;50.838;7.214;2023-12-14T04:24:18;26.55;;;15.50;;
30398;SDS011;17195;50.838;7.214;2023-12-14T04:26:44;32.75;;;16.60;;
30398;SDS011;17195;50.838;7.214;2023-12-14T04:29:10;31.42;;;16.70;;
30398;SDS011;17195;50.838;7.214;2023-12-14T04:31:35;31.17;;;17.15;;
30398;SDS011;17195;50.838;7.214;2023-12-14T04:34:01;35.08;;;17.98;;
30398;SDS011;17195;50.838;7.214;2023-12-14T04:36:26;31.02;;;16.50;;
30398;SDS011;17195;50.838;7.214;2023-12-14T04:38:52;32.53;;;17.50;;
30398;SDS011;17195;50.838;7.214;2023-12-14T04:41:17;30.98;;;17.33;;
30398;SDS011;17195;50.838;7.214;2023-12-14T04:43:43;26.23;;;15.95;;
30398;SDS011;17195;50.838;7.214;2023-12-14T04:46:08;26.75;;;14.98;;
30398;SDS011;17195;50.838;7.214;2023-12-14T04:48:34;26.88;;;14.68;;
30398;SDS011;17195;50.838;7.214;2023-12-14T04:50:59;23.55;;;13.23;;
30398;SDS011;17195;50.838;7.214;2023-12-14T04:53:25;24.10;;;13.90;;
30398;SDS011;17195;50.838;7.214;2023-12-14T04:55:50;23.88;;;14.30;;
30398;SDS011;17195;50.838;7.214;2023-12-14T04:58:16;20.75;;;13.32;;
30398;SDS011;17195;50.838;7.214;2023-12-14T05:00:41;19.85;;;13.20;;
30398;SDS011;17195;50.838;7.214;2023-12-14T05:03:07;20.65;;;12.45;;
30398;SDS011;17195;50.838;7.214;2023-12-14T05:05:33;15.65;;;10.82;;
30398;SDS011;17195;50.838;7.214;2023-12-14T05:07:58;13.95;;;9.75;;
30398;SDS011;17195;50.838;7.214;2023-12-14T05:10:24;16.27;;;10.30;;
30398;SDS011;17195;50.838;7.214;2023-12-14T05:12:49;16.00;;;10.13;;
30398;SDS011;17195;50.838;7.214;2023-12-14T05:15:15;13.95;;;9.05;;
30398;SDS011;17195;50.838;7.214;2023-12-14T05:17:40;13.23;;;8.85;;
30398;SDS011;17195;50.838;7.214;2023-12-14T05:20:09;13.82;;;8.48;;
30398;SDS011;17195;50.838;7.214;2023-12-14T05:22:35;11.85;;;7.97;;
30398;SDS011;17195;50.838;7.214;2023-12-14T05:25:01;10.63;;;7.78;;
30398;SDS011;17195;50.838;7.214;2023-12-14T05:27:26;12.07;;;7.45;;
30398;SDS011;17195;50.838;7.214;2023-12-14T05:29:52;10.43;;;7.45;;
30398;SDS011;17195;50.838;7.214;2023-12-14T05:32:17;10.85;;;7.47;;
30398;SDS011;17195;50.838;7.214;2023-12-14T05:34:43;10.52;;;7.32;;
30398;SDS011;17195;50.838;7.214;2023-12-14T05:37:08;12.20;;;7.45;;
30398;SDS011;17195;50.838;7.214;2023-12-14T05:39:34;10.80;;;7.32;;
30398;SDS011;17195;50.838;7.214;2023-12-14T05:41:59;13.30;;;8.25;;
30398;SDS011;17195;50.838;7.214;2023-12-14T05:44:25;14.50;;;9.27;;
30398;SDS011;17195;50.838;7.214;2023-12-14T05:46:51;11.55;;;8.40;;
30398;SDS011;17195;50.838;7.214;2023-12-14T05:49:17;14.18;;;9.05;;
30398;SDS011;17195;50.838;7.214;2023-12-14T05:51:42;17.08;;;10.20;;
30398;SDS011;17195;50.838;7.214;2023-12-14T05:54:08;14.57;;;10.23;;
30398;SDS011;17195;50.838;7.214;2023-12-14T05:56:33;16.27;;;10.60;;
30398;SDS011;17195;50.838;7.214;2023-12-14T05:58:59;16.35;;;10.38;;
30398;SDS011;17195;50.838;7.214;2023-12-14T06:01:24;16.10;;;10.73;;
30398;SDS011;17195;50.838;7.214;2023-12-14T06:03:50;18.95;;;11.93;;
30398;SDS011;17195;50.838;7.214;2023-12-14T06:06:15;20.02;;;12.60;;
30398;SDS011;17195;50.838;7.214;2023-12-14T06:08:41;20.98;;;12.85;;
30398;SDS011;17195;50.838;7.214;2023-12-14T06:11:07;21.10;;;12.98;;
30398;SDS011;17195;50.838;7.214;2023-12-14T06:13:33;21.52;;;13.30;;
30398;SDS011;17195;50.838;7.214;2023-12-14T06:15:59;25.40;;;14.45;;
30398;SDS011;17195;50.838;7.214;2023-12-14T06:18:25;22.30;;;14.20;;
30398;SDS011;17195;50.838;7.214;2023-12-14T06:20:51;23.60;;;14.43;;
30398;SDS011;17195;50.838;7.214;2023-12-14T06:23:16;24.63;;;15.07;;
30398;SDS011;17195;50.838;7.214;2023-12-14T06:25:43;27.33;;;16.50;;
30398;SDS011;17195;50.838;7.214;2023-12-14T06:28:08;22.90;;;14.63;;
30398;SDS011;17195;50.838;7.214;2023-12-14T06:30:34;28.95;;;17.27;;
30398;SDS011;17195;50.838;7.214;2023-12-14T06:32:59;29.88;;;18.25;;
30398;SDS011;17195;50.838;7.214;2023-12-14T06:35:25;29.92;;;17.63;;
30398;SDS011;17195;50.838;7.214;2023-12-14T06:37:50;30.75;;;18.52;;
30398;SDS011;17195;50.838;7.214;2023-12-14T06:40:16;33.20;;;17.90;;
30398;SDS011;17195;50.838;7.214;2023-12-14T06:42:41;32.90;;;17.92;;
30398;SDS011;17195;50.838;7.214;2023-12-14T06:45:07;32.20;;;17.60;;
30398;SDS011;17195;50.838;7.214;2023-12-14T06:47:35;33.72;;;18.05;;
30398;SDS011;17195;50.838;7.214;2023-12-14T06:50:00;34.25;;;18.50;;
30398;SDS011;17195;50.838;7.214;2023-12-14T06:52:26;32.25;;;17.60;;
30398;SDS011;17195;50.838;7.214;2023-12-14T06:54:51;33.17;;;18.40;;
30398;SDS011;17195;50.838;7.214;2023-12-14T06:57:17;30.90;;;16.77;;
30398;SDS011;17195;50.838;7.214;2023-12-14T06:59:42;32.17;;;17.48;;
30398;SDS011;17195;50.838;7.214;2023-12-14T07:02:08;34.13;;;17.33;;
30398;SDS011;17195;50.838;7.214;2023-12-14T07:04:33;29.38;;;16.38;;
30398;SDS011;17195;50.838;7.214;2023-12-14T07:06:59;33.38;;;17.90;;
30398;SDS011;17195;50.838;7.214;2023-12-14T07:09:24;32.42;;;17.50;;
30398;SDS011;17195;50.838;7.214;2023-12-14T07:11:50;32.90;;;18.38;;
30398;SDS011;17195;50.838;7.214;2023-12-14T07:14:16;29.75;;;16.48;;
30398;SDS011;17195;50.838;7.214;2023-12-14T07:16:42;32.42;;;16.95;;
30398;SDS011;17195;50.838;7.214;2023-12-14T07:19:07;36.63;;;18.77;;
30398;SDS011;17195;50.838;7.214;2023-12-14T07:21:33;36.35;;;18.92;;
30398;SDS011;17195;50.838;7.214;2023-12-14T07:23:59;38.05;;;18.52;;
30398;SDS011;17195;50.838;7.214;2023-12-14T07:26:24;41.80;;;19.77;;
30398;SDS011;17195;50.838;7.214;2023-12-14T07:28:51;31.77;;;17.38;;
30398;SDS011;17195;50.838;7.214;2023-12-14T07:31:18;36.30;;;17.45;;
30398;SDS011;17195;50.838;7.214;2023-12-14T07:33:43;33.45;;;18.02;;
30398;SDS011;17195;50.838;7.214;2023-12-14T07:36:10;32.33;;;17.17;;
30398;SDS011;17195;50.838;7.214;2023-12-14T07:38:35;38.78;;;19.52;;
30398;SDS011;17195;50.838;7.214;2023-12-14T07:41:01;38.88;;;19.08;;
30398;SDS011;17195;50.838;7.214;2023-12-14T07:43:27;50.92;;;23.60;;
30398;SDS011;17195;50.838;7.214;2023-12-14T07:45:53;49.90;;;23.75;;
30398;SDS011;17195;50.838;7.214;2023-12-14T07:48:19;48.20;;;22.77;;
30398;SDS011;17195;50.838;7.214;2023-12-14T07:50:44;47.08;;;23.10;;
30398;SDS011;17195;50.838;7.214;2023-12-14T07:53:10;43.58;;;21.73;;
30398;SDS011;17195;50.838;7.214;2023-12-14T07:55:36;49.70;;;22.45;;
30398;SDS011;17195;50.838;7.214;2023-12-14T07:58:01;46.05;;;21.55;;
30398;SDS011;17195;50.838;7.214;2023-12-14T08:00:27;47.88;;;21.38;;
30398;SDS011;17195;50.838;7.214;2023-12-14T08:02:52;44.00;;;21.33;;
30398;SDS011;17195;50.838;7.214;2023-12-14T08:05:18;43.35;;;20.80;;
30398;SDS011;17195;50.838;7.214;2023-12-14T08:07:44;45.42;;;20.58;;
30398;SDS011;17195;50.838;7.214;2023-12-14T08:10:09;38.95;;;20.20;;
30398;SDS011;17195;50.838;7.214;2023-12-14T08:12:35;44.00;;;20.10;;
30398;SDS011;17195;50.838;7.214;2023-12-14T08:15:00;39.17;;;19.52;;
30398;SDS011;17195;50.838;7.214;2023-12-14T08:17:26;36.42;;;18.88;;
30398;SDS011;17195;50.838;7.214;2023-12-14T08:19:53;33.58;;;18.25;;
30398;SDS011;17195;50.838;7.214;2023-12-14T08:22:18;37.78;;;18.92;;
30398;SDS011;17195;50.838;7.214;2023-12-14T08:24:46;36.65;;;18.65;;
30398;SDS011;17195;50.838;7.214;2023-12-14T08:27:12;33.50;;;17.52;;
30398;SDS011;17195;50.838;7.214;2023-12-14T08:29:38;36.25;;;17.73;;
30398;SDS011;17195;50.838;7.214;2023-12-14T08:32:03;38.67;;;18.85;;
30398;SDS011;17195;50.838;7.214;2023-12-14T08:34:29;32.80;;;17.65;;
30398;SDS011;17195;50.838;7.214;2023-12-14T08:36:55;33.30;;;17.77;;
30398;SDS011;17195;50.838;7.214;2023-12-14T08:39:20;32.83;;;17.33;;
30398;SDS011;17195;50.838;7.214;2023-12-14T08:41:46;28.98;;;16.08;;
30398;SDS011;17195;50.838;7.214;2023-12-14T08:44:13;32.60;;;17.08;;
30398;SDS011;17195;50.838;7.214;2023-12-14T08:46:44;31.45;;;17.75;;
30398;SDS011;17195;50.838;7.214;2023-12-14T08:49:11;31.00;;;16.77;;
30398;SDS011;17195;50.838;7.214;2023-12-14T08:51:37;29.92;;;16.30;;
30398;SDS011;17195;50.838;7.214;2023-12-14T08:54:03;29.70;;;16.17;;
30398;SDS011;17195;50.838;7.214;2023-12-14T08:56:29;30.48;;;16.88;;
30398;SDS011;17195;50.838;7.214;2023-12-14T08:58:55;31.80;;;15.85;;
30398;SDS011;17195;50.838;7.214;2023-12-14T09:01:21;31.13;;;15.73;;
30398;SDS011;17195;50.838;7.214;2023-12-14T09:03:48;35.40;;;17.65;;
30398;SDS011;17195;50.838;7.214;2023-12-14T09:06:14;32.83;;;17.75;;
30398;SDS011;17195;50.838;7.214;2023-12-14T09:08:41;41.85;;;19.30;;
30398;SDS011;17195;50.838;7.214;2023-12-14T09:11:06;39.90;;;19.65;;
30398;SDS011;17195;50.838;7.214;2023-12-14T09:13:32;45.45;;;20.90;;
30398;SDS011;17195;50.838;7.214;2023-12-14T09:15:58;41.35;;;20.27;;
30398;SDS011;17195;50.838;7.214;2023-12-14T09:18:23;40.03;;;19.45;;
30398;SDS011;17195;50.838;7.214;2023-12-14T09:20:49;47.00;;;22.17;;
30398;SDS011;17195;50.838;7.214;2023-12-14T09:23:15;51.78;;;22.80;;
30398;SDS011;17195;50.838;7.214;2023-12-14T09:25:41;57.88;;;26.77;;
30398;SDS011;17195;50.838;7.214;2023-12-14T09:28:07;65.35;;;26.73;;
30398;SDS011;17195;50.838;7.214;2023-12-14T09:30:33;65.18;;;28.20;;
30398;SDS011;17195;50.838;7.214;2023-12-14T09:32:58;65.55;;;30.85;;
30398;SDS011;17195;50.838;7.214;2023-12-14T09:35:24;67.28;;;29.63;;
30398;SDS011;17195;50.838;7.214;2023-12-14T09:37:49;70.45;;;28.83;;
30398;SDS011;17195;50.838;7.214;2023-12-14T09:40:15;68.32;;;30.27;;
30398;SDS011;17195;50.838;7.214;2023-12-14T09:42:41;71.93;;;29.92;;
30398;SDS011;17195;50.838;7.214;2023-12-14T09:45:07;69.35;;;29.67;;
30398;SDS011;17195;50.838;7.214;2023-12-14T09:47:34;62.08;;;28.13;;
30398;SDS011;17195;50.838;7.214;2023-12-14T09:50:00;52.38;;;23.83;;
30398;SDS011;17195;50.838;7.214;2023-12-14T09:52:26;49.65;;;20.83;;
30398;SDS011;17195;50.838;7.214;2023-12-14T09:54:52;45.78;;;20.15;;
30398;SDS011;17195;50.838;7.214;2023-12-14T09:57:20;38.67;;;17.65;;
30398;SDS011;17195;50.838;7.214;2023-12-14T09:59:52;39.90;;;18.08;;
30398;SDS011;17195;50.838;7.214;2023-12-14T10:02:19;39.05;;;16.75;;
30398;SDS011;17195;50.838;7.214;2023-12-14T10:04:45;37.63;;;17.67;;
30398;SDS011;17195;50.838;7.214;2023-12-14T10:07:11;34.63;;;15.63;;
30398;SDS011;17195;50.838;7.214;2023-12-14T10:09:37;33.08;;;15.52;;
30398;SDS011;17195;50.838;7.214;2023-12-14T10:12:04;35.50;;;16.45;;
30398;SDS011;17195;50.838;7.214;2023-12-14T10:14:31;31.55;;;15.38;;
30398;SDS011;17195;50.838;7.214;2023-12-14T10:16:57;30.08;;;14.68;;
30398;SDS011;17195;50.838;7.214;2023-12-14T10:19:23;32.58;;;15.05;;
30398;SDS011;17195;50.838;7.214;2023-12-14T10:21:49;29.60;;;14.55;;
30398;SDS011;17195;50.838;7.214;2023-12-14T10:24:15;25.48;;;13.23;;
30398;SDS011;17195;50.838;7.214;2023-12-14T10:26:44;28.17;;;13.93;;
30398;SDS011;17195;50.838;7.214;2023-12-14T10:29:10;25.95;;;12.82;;
30398;SDS011;17195;50.838;7.214;2023-12-14T10:31:36;28.00;;;13.60;;
30398;SDS011;17195;50.838;7.214;2023-12-14T10:34:05;23.65;;;12.32;;
30398;SDS011;17195;50.838;7.214;2023-12-14T10:36:31;27.52;;;13.40;;
30398;SDS011;17195;50.838;7.214;2023-12-14T10:38:58;28.17;;;13.95;;
30398;SDS011;17195;50.838;7.214;2023-12-14T10:41:25;27.25;;;13.07;;
30398;SDS011;17195;50.838;7.214;2023-12-14T10:43:53;27.67;;;13.85;;
30398;SDS011;17195;50.838;7.214;2023-12-14T10:46:20;28.10;;;13.60;;
30398;SDS011;17195;50.838;7.214;2023-12-14T10:48:52;28.00;;;14.35;;
30398;SDS011;17195;50.838;7.214;2023-12-14T10:51:18;27.52;;;14.23;;
30398;SDS011;17195;50.838;7.214;2023-12-14T10:53:46;31.30;;;15.35;;
30398;SDS011;17195;50.838;7.214;2023-12-14T10:56:13;33.58;;;16.20;;
30398;SDS011;17195;50.838;7.214;2023-12-14T10:58:47;36.50;;;15.65;;
30398;SDS011;17195;50.838;7.214;2023-12-14T11:01:16;37.47;;;17.52;;
30398;SDS011;17195;50.838;7.214;2023-12-14T11:03:44;36.70;;;17.17;;
30398;SDS011;17195;50.838;7.214;2023-12-14T11:11:38;40.30;;;19.60;;
30398;SDS011;17195;50.838;7.214;2023-12-14T11:14:07;42.35;;;20.42;;
30398;SDS011;17195;50.838;7.214;2023-12-14T11:16:35;41.88;;;20.27;;
30398;SDS011;17195;50.838;7.214;2023-12-14T11:22:31;46.08;;;20.40;;
30398;SDS011;17195;50.838;7.214;2023-12-14T11:24:32;40.25;;;19.42;;
30398;SDS011;17195;50.838;7.214;2023-12-14T11:26:59;48.53;;;21.52;;
30398;SDS011;17195;50.838;7.214;2023-12-14T11:29:29;40.85;;;19.63;;
30398;SDS011;17195;50.838;7.214;2023-12-14T11:31:55;43.35;;;21.02;;
30398;SDS011;17195;50.838;7.214;2023-12-14T11:34:23;41.70;;;19.35;;
30398;SDS011;17195;50.838;7.214;2023-12-14T11:36:49;39.20;;;19.15;;
30398;SDS011;17195;50.838;7.214;2023-12-14T11:39:15;45.08;;;20.02;;
30398;SDS011;17195;50.838;7.214;2023-12-14T11:41:40;44.60;;;19.48;;
30398;SDS011;17195;50.838;7.214;2023-12-14T11:44:06;41.05;;;19.63;;
30398;SDS011;17195;50.838;7.214;2023-12-14T11:46:32;40.45;;;18.52;;
30398;SDS011;17195;50.838;7.214;2023-12-14T11:48:58;41.08;;;19.52;;
30398;SDS011;17195;50.838;7.214;2023-12-14T11:51:23;41.95;;;19.38;;
30398;SDS011;17195;50.838;7.214;2023-12-14T11:53:52;43.20;;;18.50;;
30398;SDS011;17195;50.838;7.214;2023-12-14T11:56:18;41.92;;;19.90;;
30398;SDS011;17195;50.838;7.214;2023-12-14T11:58:44;44.22;;;20.10;;
30398;SDS011;17195;50.838;7.214;2023-12-14T12:01:19;40.08;;;19.42;;
30398;SDS011;17195;50.838;7.214;2023-12-14T12:03:49;43.25;;;20.27;;
30398;SDS011;17195;50.838;7.214;2023-12-14T12:06:22;44.80;;;21.30;;
30398;SDS011;17195;50.838;7.214;2023-12-14T12:08:55;42.92;;;22.08;;
30398;SDS011;17195;50.838;7.214;2023-12-14T12:11:21;45.90;;;21.27;;
30398;SDS011;17195;50.838;7.214;2023-12-14T12:13:55;45.92;;;22.35;;
30398;SDS011;17195;50.838;7.214;2023-12-14T12:16:22;49.72;;;23.30;;
30398;SDS011;17195;50.838;7.214;2023-12-14T12:18:48;51.15;;;24.25;;
30398;SDS011;17195;50.838;7.214;2023-12-14T12:21:15;56.78;;;25.05;;
30398;SDS011;17195;50.838;7.214;2023-12-14T12:23:41;53.70;;;24.88;;
30398;SDS011;17195;50.838;7.214;2023-12-14T12:26:07;52.70;;;25.35;;
30398;SDS011;17195;50.838;7.214;2023-12-14T12:28:32;49.95;;;23.02;;
30398;SDS011;17195;50.838;7.214;2023-12-14T12:30:58;49.83;;;23.15;;
30398;SDS011;17195;50.838;7.214;2023-12-14T12:33:24;53.20;;;23.58;;
30398;SDS011;17195;50.838;7.214;2023-12-14T12:35:51;48.20;;;23.17;;
30398;SDS011;17195;50.838;7.214;2023-12-14T12:38:17;45.58;;;23.08;;
30398;SDS011;17195;50.838;7.214;2023-12-14T12:40:43;52.28;;;24.90;;
30398;SDS011;17195;50.838;7.214;2023-12-14T12:43:09;47.95;;;24.15;;
30398;SDS011;17195;50.838;7.214;2023-12-14T12:45:36;47.67;;;23.17;;
30398;SDS011;17195;50.838;7.214;2023-12-14T12:48:02;51.75;;;24.20;;
30398;SDS011;17195;50.838;7.214;2023-12-14T12:50:29;50.70;;;25.73;;
30398;SDS011;17195;50.838;7.214;2023-12-14T12:52:55;49.72;;;23.60;;
30398;SDS011;17195;50.838;7.214;2023-12-14T12:55:20;47.72;;;24.67;;
30398;SDS011;17195;50.838;7.214;2023-12-14T12:57:46;47.80;;;24.73;;
30398;SDS011;17195;50.838;7.214;2023-12-14T13:00:12;49.92;;;25.02;;
30398;SDS011;17195;50.838;7.214;2023-12-14T13:02:39;54.70;;;26.10;;
30398;SDS011;17195;50.838;7.214;2023-12-14T13:05:09;52.75;;;25.15;;
30398;SDS011;17195;50.838;7.214;2023-12-14T13:07:35;49.08;;;24.95;;
30398;SDS011;17195;50.838;7.214;2023-12-14T13:10:02;45.85;;;23.90;;
30398;SDS011;17195;50.838;7.214;2023-12-14T13:12:29;48.53;;;24.42;;
30398;SDS011;17195;50.838;7.214;2023-12-14T13:14:55;47.20;;;22.98;;
30398;SDS011;17195;50.838;7.214;2023-12-14T13:17:20;46.08;;;24.00;;
30398;SDS011;17195;50.838;7.214;2023-12-14T13:19:46;43.65;;;23.05;;
30398;SDS011;17195;50.838;7.214;2023-12-14T13:22:12;44.53;;;24.30;;
30398;SDS011;17195;50.838;7.214;2023-12-14T13:24:38;42.47;;;22.40;;
30398;SDS011;17195;50.838;7.214;2023-12-14T13:27:04;45.05;;;23.75;;
30398;SDS011;17195;50.838;7.214;2023-12-14T13:29:30;45.20;;;23.58;;
30398;SDS011;17195;50.838;7.214;2023-12-14T13:31:57;51.25;;;25.05;;
30398;SDS011;17195;50.838;7.214;2023-12-14T13:34:22;52.13;;;24.70;;
30398;SDS011;17195;50.838;7.214;2023-12-14T13:36:48;46.55;;;24.50;;
30398;SDS011;17195;50.838;7.214;2023-12-14T13:39:13;46.88;;;25.35;;
30398;SDS011;17195;50.838;7.214;2023-12-14T13:41:39;46.55;;;25.30;;
30398;SDS011;17195;50.838;7.214;2023-12-14T13:44:04;43.08;;;23.25;;
30398;SDS011;17195;50.838;7.214;2023-12-14T13:46:30;46.33;;;25.17;;
30398;SDS011;17195;50.838;7.214;2023-12-14T13:48:56;58.10;;;28.00;;
30398;SDS011;17195;50.838;7.214;2023-12-14T13:51:21;54.05;;;27.00;;
30398;SDS011;17195;50.838;7.214;2023-12-14T13:53:47;47.97;;;24.95;;
30398;SDS011;17195;50.838;7.214;2023-12-14T13:56:12;49.47;;;24.45;;
30398;SDS011;17195;50.838;7.214;2023-12-14T13:58:38;50.60;;;25.92;;
30398;SDS011;17195;50.838;7.214;2023-12-14T14:01:04;45.53;;;24.40;;
30398;SDS011;17195;50.838;7.214;2023-12-14T14:03:32;50.90;;;26.55;;
30398;SDS011;17195;50.838;7.214;2023-12-14T14:05:58;44.78;;;23.30;;
30398;SDS011;17195;50.838;7.214;2023-12-14T14:08:24;44.80;;;25.05;;
30398;SDS011;17195;50.838;7.214;2023-12-14T14:10:49;44.42;;;22.60;;
30398;SDS011;17195;50.838;7.214;2023-12-14T14:13:15;46.50;;;22.38;;
30398;SDS011;17195;50.838;7.214;2023-12-14T14:15:41;48.35;;;25.48;;
30398;SDS011;17195;50.838;7.214;2023-12-14T14:18:06;50.58;;;24.75;;
30398;SDS011;17195;50.838;7.214;2023-12-14T14:20:32;42.33;;;22.30;;
30398;SDS011;17195;50.838;7.214;2023-12-14T14:22:57;38.40;;;21.45;;
30398;SDS011;17195;50.838;7.214;2023-12-14T14:25:24;39.08;;;21.50;;
30398;SDS011;17195;50.838;7.214;2023-12-14T14:27:50;43.63;;;22.08;;